createdAt,value
2022-11-16T00:01:41.664Z,98307.84
2022-11-16T00:04:13.348Z,98307.98
2022-11-16T00:06:44.036Z,98305.05
2022-11-16T00:09:23.986Z,98300.34
2022-11-16T00:11:56.034Z,98302.43
2022-11-16T00:14:29.162Z,98298.99
2022-11-16T00:16:59.912Z,98299.55
2022-11-16T00:19:33.589Z,98296.10
2022-11-16T00:22:02.642Z,98290.88
2022-11-16T00:24:33.400Z,98294.57
2022-11-16T00:27:04.067Z,98298.74
2022-11-16T00:29:35.014Z,98298.02
2022-11-16T00:32:05.945Z,98296.27
2022-11-16T00:34:36.583Z,98291.70
2022-11-16T00:37:07.216Z,98279.42
2022-11-16T00:39:37.805Z,98280.79
2022-11-16T00:42:08.584Z,98277.20
2022-11-16T00:44:39.244Z,98277.51
2022-11-16T00:47:09.834Z,98275.89
2022-11-16T00:49:40.484Z,98270.56
2022-11-16T00:52:11.135Z,98268.79
2022-11-16T00:54:41.881Z,98269.99
2022-11-16T00:57:12.504Z,98263.13
2022-11-16T00:59:43.214Z,98261.23
2022-11-16T01:02:13.840Z,98261.17
2022-11-16T01:04:44.460Z,98254.05
2022-11-16T01:07:15.077Z,98252.42
2022-11-16T01:09:45.783Z,98248.25
2022-11-16T01:12:17.335Z,98245.58
2022-11-16T01:14:49.748Z,98249.54
2022-11-16T01:17:20.330Z,98247.64
2022-11-16T01:19:50.928Z,98250.10
2022-11-16T01:22:22.646Z,98250.52
2022-11-16T01:24:53.260Z,98251.59
2022-11-16T01:27:23.843Z,98248.44
2022-11-16T01:29:54.550Z,98243.58
2022-11-16T01:32:25.597Z,98245.12
2022-11-16T01:34:56.210Z,98244.19
2022-11-16T01:37:27.140Z,98239.21
2022-11-16T01:39:57.919Z,98236.63
2022-11-16T01:42:30.160Z,98232.46
2022-11-16T01:45:08.816Z,98234.64
2022-11-16T01:47:39.411Z,98229.56
2022-11-16T01:50:14.788Z,98228.61
2022-11-16T01:52:52.884Z,98226.20
2022-11-16T01:55:26.436Z,98216.05
2022-11-16T01:57:58.154Z,98215.00
2022-11-16T02:00:28.884Z,98215.31
2022-11-16T02:02:59.480Z,98210.50
2022-11-16T02:05:38.546Z,98202.56
2022-11-16T02:08:41.953Z,98200.99
2022-11-16T02:11:50.233Z,98201.16
2022-11-16T02:14:32.012Z,98199.46
2022-11-16T02:17:08.970Z,98199.71
2022-11-16T02:20:01.510Z,98198.05
2022-11-16T02:22:54.294Z,98198.10
2022-11-16T02:25:35.909Z,98194.63
2022-11-16T02:28:29.732Z,98189.33
2022-11-16T02:31:06.512Z,98183.71
2022-11-16T02:33:42.040Z,98179.89
2022-11-16T02:36:16.339Z,98172.59
2022-11-16T02:38:52.478Z,98168.63
2022-11-16T02:41:25.588Z,98168.75
2022-11-16T02:44:02.879Z,98171.48
2022-11-16T02:46:37.940Z,98171.48
2022-11-16T02:49:12.461Z,98174.89
2022-11-16T02:51:44.423Z,98167.66
2022-11-16T02:54:19.045Z,98164.69
2022-11-16T02:56:55.849Z,98162.30
2022-11-16T02:59:31.987Z,98153.99
2022-11-16T03:02:14.505Z,98154.84
2022-11-16T03:04:48.655Z,98150.53
2022-11-16T03:07:25.186Z,98148.23
2022-11-16T03:09:59.175Z,98150.86
2022-11-16T03:12:36.768Z,98148.42
2022-11-16T03:15:12.072Z,98145.78
2022-11-16T03:17:46.063Z,98143.02
2022-11-16T03:20:22.450Z,98140.39
2022-11-16T03:22:56.095Z,98140.83
2022-11-16T03:25:31.261Z,98140.77
2022-11-16T03:28:08.248Z,98135.39
2022-11-16T03:30:43.752Z,98137.11
2022-11-16T03:33:20.548Z,98134.70
2022-11-16T03:35:58.843Z,98133.02
2022-11-16T03:38:31.346Z,98128.08
2022-11-16T03:41:06.918Z,98124.54
2022-11-16T03:43:39.338Z,98124.81
2022-11-16T03:46:10.206Z,98127.87
2022-11-16T03:48:41.553Z,98124.41
2022-11-16T03:51:13.632Z,98122.23
2022-11-16T03:53:44.359Z,98107.86
2022-11-16T03:56:15.010Z,98115.30
2022-11-16T03:58:45.635Z,98117.31
2022-11-16T04:01:16.515Z,98118.68
2022-11-16T04:03:47.090Z,98112.80
2022-11-16T04:06:36.174Z,98113.74
2022-11-16T04:09:24.718Z,98107.15
2022-11-16T04:12:13.250Z,98109.55
2022-11-16T04:15:02.059Z,98106.08
2022-11-16T04:17:50.216Z,98106.80
2022-11-16T04:20:38.886Z,98103.11
2022-11-16T04:23:33.470Z,98103.30
2022-11-16T04:26:04.212Z,98098.07
2022-11-16T04:28:37.149Z,98098.29
2022-11-16T04:31:26.491Z,98095.89
2022-11-16T04:34:14.728Z,98090.48
2022-11-16T04:37:02.411Z,98085.98
2022-11-16T04:39:33.022Z,98083.69
2022-11-16T04:42:15.646Z,98082.32
2022-11-16T04:45:03.887Z,98080.50
2022-11-16T04:47:34.510Z,98073.66
2022-11-16T04:50:05.553Z,98065.52
2022-11-16T04:52:36.213Z,98065.38
2022-11-16T04:55:08.278Z,98054.89
2022-11-16T04:57:38.993Z,98056.02
2022-11-16T05:00:12.293Z,98052.13
2022-11-16T05:02:43.245Z,98050.06
2022-11-16T05:05:14.604Z,98052.52
2022-11-16T05:07:45.891Z,98052.20
2022-11-16T05:10:17.105Z,98052.14
2022-11-16T05:12:47.890Z,98051.43
2022-11-16T05:15:19.935Z,98044.02
2022-11-16T05:17:54.945Z,98048.20
2022-11-16T05:20:46.538Z,98048.50
2022-11-16T05:23:35.000Z,98044.19
2022-11-16T05:26:09.220Z,98043.91
2022-11-16T05:28:41.651Z,98037.83
2022-11-16T05:31:13.985Z,98037.02
2022-11-16T05:33:53.552Z,98035.48
2022-11-16T05:36:26.041Z,98031.64
2022-11-16T05:38:57.077Z,98026.91
2022-11-16T05:41:30.836Z,98022.82
2022-11-16T05:44:00.205Z,98022.73
2022-11-16T05:46:31.436Z,98021.11
2022-11-16T05:49:07.238Z,98022.69
2022-11-16T05:51:39.715Z,98014.02
2022-11-16T05:54:12.812Z,98015.35
2022-11-16T05:56:44.168Z,98012.50
2022-11-16T05:59:17.415Z,98019.10
2022-11-16T06:01:49.381Z,98022.36
2022-11-16T06:04:24.475Z,98029.10
2022-11-16T06:06:55.826Z,98021.98
2022-11-16T06:09:28.723Z,98031.98
2022-11-16T06:11:59.440Z,98034.36
2022-11-16T06:14:30.077Z,98036.70
2022-11-16T06:17:00.913Z,98038.98
2022-11-16T06:19:32.848Z,98044.73
2022-11-16T06:22:03.821Z,98048.42
2022-11-16T06:24:34.792Z,98048.75
2022-11-16T06:27:05.499Z,98052.75
2022-11-16T06:29:36.342Z,98053.80
2022-11-16T06:32:07.656Z,98057.85
2022-11-16T06:34:38.255Z,98055.88
2022-11-16T06:37:08.965Z,98057.95
2022-11-16T06:39:39.785Z,98048.23
2022-11-16T06:42:10.461Z,98054.51
2022-11-16T06:44:41.244Z,98054.23
2022-11-16T06:47:11.910Z,98051.89
2022-11-16T06:49:42.960Z,98051.81
2022-11-16T06:52:13.732Z,98049.77
2022-11-16T06:54:44.528Z,98055.52
2022-11-16T06:57:15.275Z,98054.85
2022-11-16T06:59:46.114Z,98057.95
2022-11-16T07:02:17.592Z,98051.61
2022-11-16T07:04:48.222Z,98048.77
2022-11-16T07:07:19.619Z,98050.82
2022-11-16T07:09:50.804Z,98048.06
2022-11-16T07:12:21.484Z,98047.23
2022-11-16T07:14:52.117Z,98048.55
2022-11-16T07:17:23.055Z,98048.15
2022-11-16T07:19:54.673Z,98046.00
2022-11-16T07:22:28.221Z,98046.16
2022-11-16T07:24:58.886Z,98047.17
2022-11-16T07:27:30.605Z,98045.40
2022-11-16T07:30:02.254Z,98046.23
2022-11-16T07:32:33.276Z,98047.10
2022-11-16T07:35:04.027Z,98048.05
2022-11-16T07:37:34.833Z,98044.61
2022-11-16T07:40:06.281Z,98048.80
2022-11-16T07:42:37.250Z,98048.50
2022-11-16T07:45:09.903Z,98049.04
2022-11-16T07:47:41.064Z,98044.50
2022-11-16T07:50:12.634Z,98045.64
2022-11-16T07:52:46.559Z,98042.89
2022-11-16T07:55:17.413Z,98032.02
2022-11-16T07:57:53.062Z,98034.91
2022-11-16T08:00:24.628Z,98034.88
2022-11-16T08:02:56.879Z,98033.20
2022-11-16T08:05:27.706Z,98032.09
2022-11-16T08:07:58.459Z,98032.45
2022-11-16T08:10:31.069Z,98027.46
2022-11-16T08:13:02.170Z,98028.19
2022-11-16T08:15:33.044Z,98024.09
2022-11-16T08:18:03.686Z,98029.08
2022-11-16T08:20:35.016Z,98025.44
2022-11-16T08:23:05.665Z,98025.58
2022-11-16T08:25:36.369Z,98027.41
2022-11-16T08:28:07.482Z,98032.36
2022-11-16T08:30:39.483Z,98035.05
2022-11-16T08:33:11.345Z,98040.50
2022-11-16T08:35:42.033Z,98041.77
2022-11-16T08:38:12.658Z,98042.02
2022-11-16T08:40:43.565Z,98040.48
2022-11-16T08:43:14.384Z,98044.81
2022-11-16T08:45:50.551Z,98042.35
2022-11-16T08:48:21.285Z,98044.98
2022-11-16T08:51:15.851Z,98043.09
2022-11-16T08:53:42.832Z,98039.86
2022-11-16T08:56:14.668Z,98041.08
2022-11-16T08:58:47.235Z,98041.39
2022-11-16T09:01:20.590Z,98040.53
2022-11-16T09:03:51.332Z,98036.54
2022-11-16T09:06:22.319Z,98034.94
2022-11-16T09:08:53.603Z,98034.27
2022-11-16T09:11:26.367Z,98032.47
2022-11-16T09:13:59.120Z,98028.29
2022-11-16T09:16:30.011Z,98028.50
2022-11-16T09:19:00.865Z,98026.05
2022-11-16T09:21:32.408Z,98024.54
2022-11-16T09:24:03.072Z,98026.49
2022-11-16T09:26:33.859Z,98026.73
2022-11-16T09:29:04.724Z,98021.00
2022-11-16T09:31:37.609Z,98018.94
2022-11-16T09:34:08.790Z,98016.06
2022-11-16T09:36:39.595Z,98010.02
2022-11-16T09:42:16.463Z,98008.45
2022-11-16T09:45:04.601Z,98008.94
2022-11-16T09:47:45.447Z,98010.95
2022-11-16T09:50:28.102Z,98012.65
2022-11-16T09:53:07.353Z,98015.12
2022-11-16T09:55:44.611Z,98015.00
2022-11-16T09:58:21.187Z,98016.17
2022-11-16T10:00:57.634Z,98006.19
2022-11-16T10:03:31.837Z,98009.68
2022-11-16T10:06:07.255Z,98003.52
2022-11-16T10:08:45.103Z,98001.41
2022-11-16T10:11:44.814Z,97998.95
2022-11-16T10:14:35.660Z,97987.95
2022-11-16T10:17:18.875Z,97990.39
2022-11-16T10:19:55.181Z,97994.42
2022-11-16T10:22:41.522Z,97995.34
2022-11-16T10:25:20.595Z,97990.60
2022-11-16T10:28:06.002Z,97986.17
2022-11-16T10:30:44.803Z,97985.52
2022-11-16T10:33:19.779Z,97983.90
2022-11-16T10:35:54.120Z,97979.77
2022-11-16T10:38:30.527Z,97976.59
2022-11-16T10:41:14.383Z,97969.52
2022-11-16T10:43:46.734Z,97965.59
2022-11-16T10:46:24.132Z,97956.58
2022-11-16T10:49:06.123Z,97958.59
2022-11-16T10:51:37.977Z,97951.36
2022-11-16T10:54:17.013Z,97953.15
2022-11-16T10:56:50.840Z,97952.91
2022-11-16T10:59:22.939Z,97958.48
2022-11-16T11:01:54.801Z,97953.27
2022-11-16T11:04:27.403Z,97950.35
2022-11-16T11:06:59.603Z,97949.41
2022-11-16T11:09:32.732Z,97941.55
2022-11-16T11:12:23.799Z,97942.00
2022-11-16T11:15:08.209Z,97947.59
2022-11-16T11:17:41.078Z,97947.77
2022-11-16T11:20:24.225Z,97946.23
2022-11-16T11:22:58.885Z,97944.25
2022-11-16T11:25:32.420Z,97943.52
2022-11-16T11:28:16.673Z,97939.45
2022-11-16T11:31:04.450Z,97935.42
2022-11-16T11:33:37.910Z,97931.77
2022-11-16T11:36:14.156Z,97935.40
2022-11-16T11:39:00.311Z,97932.88
2022-11-16T11:41:36.402Z,97936.08
2022-11-16T11:44:16.196Z,97939.11
2022-11-16T11:47:50.349Z,97935.27
2022-11-16T11:49:50.174Z,97934.17
2022-11-16T11:52:26.400Z,97931.11
2022-11-16T11:54:58.484Z,97932.98
2022-11-16T11:57:29.302Z,97928.48
2022-11-16T11:59:59.917Z,97929.45
2022-11-16T12:02:49.240Z,97925.45
2022-11-16T12:05:47.064Z,97923.66
2022-11-16T12:08:34.028Z,97924.37
2022-11-16T12:11:14.430Z,97927.23
2022-11-16T12:14:11.071Z,97926.34
2022-11-16T12:16:53.833Z,97921.20
2022-11-16T12:19:57.394Z,97922.35
2022-11-16T12:22:45.068Z,97924.48
2022-11-16T12:25:25.164Z,97922.98
2022-11-16T12:28:12.279Z,97919.71
2022-11-16T12:30:56.679Z,97920.31
2022-11-16T12:33:38.592Z,97917.02
2022-11-16T12:36:20.873Z,97915.27
2022-11-16T12:39:06.145Z,97917.73
2022-11-16T12:41:55.598Z,97914.27
2022-11-16T12:44:38.011Z,97909.41
2022-11-16T12:47:18.931Z,97907.90
2022-11-16T12:50:04.527Z,97903.34
2022-11-16T12:52:59.147Z,97898.75
2022-11-16T12:55:40.272Z,97894.91
2022-11-16T12:58:27.386Z,97897.86
2022-11-16T13:01:09.905Z,97890.59
2022-11-16T13:03:47.107Z,97890.64
2022-11-16T13:06:21.333Z,97889.52
2022-11-16T13:09:00.269Z,97886.18
2022-11-16T13:11:36.772Z,97883.77
2022-11-16T13:14:14.683Z,97881.42
2022-11-16T13:16:46.772Z,97881.11
2022-11-16T13:19:19.601Z,97883.80
2022-11-16T13:21:57.039Z,97877.25
2022-11-16T13:24:45.201Z,97876.59
2022-11-16T13:27:26.312Z,97871.33
2022-11-16T13:30:02.250Z,97870.39
2022-11-16T13:32:46.399Z,97863.52
2022-11-16T13:35:20.980Z,97870.38
2022-11-16T13:37:52.867Z,97865.20
2022-11-16T13:40:31.835Z,97864.70
2022-11-16T13:43:15.565Z,97865.72
2022-11-16T13:45:57.064Z,97863.77
2022-11-16T13:48:33.567Z,97863.61
2022-11-16T13:51:07.208Z,97865.23
2022-11-16T13:54:42.765Z,97863.64
2022-11-16T13:56:50.735Z,97864.91
2022-11-16T13:59:27.598Z,97867.56
2022-11-16T14:02:01.746Z,97864.82
2022-11-16T14:04:59.387Z,97864.60
2022-11-16T14:07:45.296Z,97865.25
2022-11-16T14:10:53.336Z,97860.23
2022-11-16T14:13:45.651Z,97860.64
2022-11-16T14:16:44.133Z,97863.14
2022-11-16T14:19:47.602Z,97865.94
2022-11-16T14:22:41.082Z,97865.20
2022-11-16T14:25:25.086Z,97862.05
2022-11-16T14:28:08.506Z,97860.61
2022-11-16T14:30:52.416Z,97858.66
2022-11-16T14:33:33.657Z,97855.82
2022-11-16T14:36:07.297Z,97850.23
2022-11-16T14:38:40.241Z,97847.65
2022-11-16T14:41:21.668Z,97846.52
2022-11-16T14:43:56.179Z,97843.82
2022-11-16T14:46:30.926Z,97843.02
2022-11-16T14:49:04.617Z,97842.38
2022-11-16T14:51:35.361Z,97839.20
2022-11-16T14:54:14.342Z,97839.37
2022-11-16T14:57:00.170Z,97843.39
2022-11-16T14:59:30.061Z,97836.14
2022-11-16T15:02:06.785Z,97836.96
2022-11-16T15:04:39.939Z,97834.02
2022-11-16T15:07:13.065Z,97831.27
2022-11-16T15:09:47.750Z,97829.40
2022-11-16T15:12:38.041Z,97830.30
2022-11-16T15:15:14.954Z,97830.63
2022-11-16T15:17:48.288Z,97825.21
2022-11-16T15:20:21.798Z,97825.55
2022-11-16T15:22:55.337Z,97823.23
2022-11-16T15:25:38.408Z,97822.91
2022-11-16T15:28:17.281Z,97821.67
2022-11-16T15:30:50.789Z,97817.31
2022-11-16T15:33:28.713Z,97816.05
2022-11-16T15:36:00.913Z,97815.20
2022-11-16T15:38:34.613Z,97812.05
2022-11-16T15:41:05.007Z,97815.93
2022-11-16T15:43:45.424Z,97812.33
2022-11-16T15:46:21.394Z,97812.86
2022-11-16T15:48:53.351Z,97813.63
2022-11-16T15:51:27.664Z,97812.13
2022-11-16T15:54:15.924Z,97809.98
2022-11-16T15:56:46.958Z,97812.98
2022-11-16T15:59:31.659Z,97813.91
2022-11-16T16:02:02.620Z,97810.08
2022-11-16T16:04:33.733Z,97810.37
2022-11-16T16:07:04.798Z,97812.91
2022-11-16T16:09:38.770Z,97812.67
2022-11-16T16:12:21.531Z,97812.38
2022-11-16T16:14:53.442Z,97812.41
2022-11-16T16:17:28.833Z,97809.83
2022-11-16T16:20:02.054Z,97810.58
2022-11-16T16:22:34.663Z,97812.36
2022-11-16T16:25:07.571Z,97810.60
2022-11-16T16:27:42.007Z,97808.36
2022-11-16T16:30:19.104Z,97805.45
2022-11-16T16:32:53.089Z,97804.50
2022-11-16T16:35:25.625Z,97801.98
2022-11-16T16:38:01.926Z,97803.00
2022-11-16T16:40:33.008Z,97802.92
2022-11-16T16:43:04.383Z,97802.33
2022-11-16T16:45:38.890Z,97802.95
2022-11-16T16:48:11.866Z,97798.20
2022-11-16T16:50:42.648Z,97801.54
2022-11-16T16:53:15.725Z,97800.41
2022-11-16T16:55:47.544Z,97797.68
2022-11-16T16:58:18.638Z,97797.27
2022-11-16T17:00:49.745Z,97794.28
2022-11-16T17:03:20.832Z,97797.13
2022-11-16T17:05:53.453Z,97798.16
2022-11-16T17:08:24.355Z,97797.90
2022-11-16T17:10:55.812Z,97798.69
2022-11-16T17:13:26.799Z,97801.41
2022-11-16T17:15:57.635Z,97802.10
2022-11-16T17:18:28.528Z,97800.98
2022-11-16T17:21:06.574Z,97798.65
2022-11-16T17:23:38.208Z,97794.41
2022-11-16T17:26:10.261Z,97795.54
2022-11-16T17:28:41.101Z,97796.02
2022-11-16T17:31:13.513Z,97791.48
2022-11-16T17:33:45.498Z,97793.46
2022-11-16T17:36:16.420Z,97791.34
2022-11-16T17:38:47.683Z,97790.65
2022-11-16T17:41:21.621Z,97789.80
2022-11-16T17:43:55.465Z,97789.09
2022-11-16T17:46:27.018Z,97786.52
2022-11-16T17:48:58.164Z,97784.17
2022-11-16T17:51:29.943Z,97783.67
2022-11-16T17:54:01.350Z,97780.86
2022-11-16T17:56:32.671Z,97780.21
2022-11-16T17:59:03.986Z,97782.40
2022-11-16T18:01:35.138Z,97777.86
2022-11-16T18:04:06.378Z,97781.26
2022-11-16T18:06:37.799Z,97776.86
2022-11-16T18:09:09.076Z,97778.54
2022-11-16T18:11:40.369Z,97779.42
2022-11-16T18:14:11.481Z,97778.80
2022-11-16T18:16:43.614Z,97781.86
2022-11-16T18:19:19.867Z,97780.92
2022-11-16T18:21:50.967Z,97778.65
2022-11-16T18:24:21.863Z,97775.86
2022-11-16T18:26:53.153Z,97773.19
2022-11-16T18:29:24.239Z,97772.60
2022-11-16T18:31:55.201Z,97773.30
2022-11-16T18:34:26.168Z,97770.17
2022-11-16T18:36:57.119Z,97769.04
2022-11-16T18:39:28.199Z,97768.20
2022-11-16T18:41:59.123Z,97767.67
2022-11-16T18:44:30.257Z,97769.20
2022-11-16T18:47:03.250Z,97766.59
2022-11-16T18:49:34.262Z,97761.88
2022-11-16T18:52:05.398Z,97761.04
2022-11-16T18:54:36.108Z,97759.15
2022-11-16T18:57:07.012Z,97755.30
2022-11-16T18:59:38.266Z,97752.09
2022-11-16T19:02:11.699Z,97743.73
2022-11-16T19:04:42.920Z,97746.81
2022-11-16T19:07:14.488Z,97740.31
2022-11-16T19:09:45.413Z,97747.16
2022-11-16T19:12:16.147Z,97750.65
2022-11-16T19:14:46.990Z,97750.95
2022-11-16T19:17:19.060Z,97743.41
2022-11-16T19:19:50.049Z,97750.28
2022-11-16T19:22:21.046Z,97753.23
2022-11-16T19:24:53.656Z,97747.96
2022-11-16T19:27:25.437Z,97753.31
2022-11-16T19:29:56.327Z,97750.80
2022-11-16T19:32:27.920Z,97752.85
2022-11-16T19:34:58.828Z,97746.63
2022-11-16T19:37:29.668Z,97749.39
2022-11-16T19:40:02.890Z,97752.39
2022-11-16T19:42:33.832Z,97755.89
2022-11-16T19:45:04.856Z,97752.77
2022-11-16T19:47:35.866Z,97756.67
2022-11-16T19:50:10.046Z,97756.04
2022-11-16T19:52:41.871Z,97753.01
2022-11-16T19:55:13.493Z,97750.94
2022-11-16T19:57:44.369Z,97746.61
2022-11-16T20:00:17.626Z,97748.33
2022-11-16T20:02:48.506Z,97741.84
2022-11-16T20:05:19.577Z,97741.77
2022-11-16T20:07:51.151Z,97742.39
2022-11-16T20:10:22.258Z,97744.54
2022-11-16T20:12:53.105Z,97744.36
2022-11-16T20:15:25.563Z,97742.89
2022-11-16T20:17:58.468Z,97740.11
2022-11-16T20:20:29.333Z,97744.58
2022-11-16T20:23:00.492Z,97744.73
2022-11-16T20:25:31.542Z,97742.15
2022-11-16T20:28:02.540Z,97743.94
2022-11-16T20:30:33.479Z,97744.84
2022-11-16T20:33:04.400Z,97740.47
2022-11-16T20:35:35.879Z,97742.59
2022-11-16T20:38:07.024Z,97736.90
2022-11-16T20:40:37.762Z,97737.55
2022-11-16T20:43:09.223Z,97741.82
2022-11-16T20:45:40.020Z,97739.66
2022-11-16T20:48:10.957Z,97741.27
2022-11-16T20:50:41.837Z,97742.23
2022-11-16T20:53:12.721Z,97737.05
2022-11-16T20:55:45.975Z,97734.65
2022-11-16T20:58:22.401Z,97731.77
2022-11-16T21:00:54.184Z,97730.48
2022-11-16T21:03:25.966Z,97722.48
2022-11-16T21:05:57.244Z,97719.83
2022-11-16T21:08:29.757Z,97721.46
2022-11-16T21:11:00.532Z,97718.35
2022-11-16T21:13:49.179Z,97718.52
2022-11-16T21:16:20.023Z,97719.23
2022-11-16T21:18:51.014Z,97715.61
2022-11-16T21:21:25.265Z,97715.84
2022-11-16T21:23:56.535Z,97714.69
2022-11-16T21:26:29.164Z,97716.95
2022-11-16T21:29:02.700Z,97716.62
2022-11-16T21:31:35.222Z,97717.86
2022-11-16T21:34:07.400Z,97716.56
2022-11-16T21:36:38.405Z,97720.94
2022-11-16T21:39:09.155Z,97719.02
2022-11-16T21:41:39.957Z,97722.06
2022-11-16T21:44:10.730Z,97717.88
2022-11-16T21:46:41.570Z,97718.02
2022-11-16T21:49:12.301Z,97720.23
2022-11-16T21:51:43.145Z,97717.92
2022-11-16T21:54:14.011Z,97723.37
2022-11-16T21:56:44.927Z,97722.00
2022-11-16T21:59:15.765Z,97720.23
2022-11-16T22:02:01.756Z,97728.81
2022-11-16T22:04:50.396Z,97726.98
2022-11-16T22:07:37.944Z,97730.41
2022-11-16T22:10:11.296Z,97728.83
2022-11-16T22:12:42.117Z,97727.23
2022-11-16T22:15:13.778Z,97729.11
2022-11-16T22:17:46.032Z,97730.69
2022-11-16T22:20:17.251Z,97733.13
2022-11-16T22:22:48.359Z,97736.52
2022-11-16T22:25:19.331Z,97734.84
2022-11-16T22:28:20.267Z,97736.04
2022-11-16T22:30:43.381Z,97735.48
2022-11-16T22:33:14.848Z,97734.72
2022-11-16T22:35:47.799Z,97732.66
2022-11-16T22:38:18.616Z,97731.64
2022-11-16T22:40:53.315Z,97726.70
2022-11-16T22:43:25.605Z,97726.60
2022-11-16T22:46:00.074Z,97728.03
2022-11-16T22:48:35.132Z,97729.64
2022-11-16T22:51:08.669Z,97730.35
2022-11-16T22:53:39.359Z,97728.88
2022-11-16T22:56:12.087Z,97731.17
2022-11-16T22:58:42.779Z,97730.02
2022-11-16T23:01:13.456Z,97733.37
2022-11-16T23:03:44.345Z,97731.38
2022-11-16T23:06:15.704Z,97730.06
2022-11-16T23:08:46.451Z,97730.10
2022-11-16T23:11:36.364Z,97728.00
2022-11-16T23:14:26.205Z,97720.45
2022-11-16T23:16:57.486Z,97729.19
2022-11-16T23:19:46.648Z,97728.27
2022-11-16T23:22:37.601Z,97724.95
2022-11-16T23:25:44.447Z,97725.09
2022-11-16T23:28:17.271Z,97724.19
2022-11-16T23:30:48.466Z,97721.98
2022-11-16T23:33:39.155Z,97721.13
2022-11-16T23:36:11.435Z,97712.80
2022-11-16T23:38:42.367Z,97713.06
2022-11-16T23:41:30.916Z,97706.77
2022-11-16T23:44:01.628Z,97704.94
2022-11-16T23:46:34.101Z,97704.58
2022-11-16T23:49:04.782Z,97704.85
2022-11-16T23:51:35.479Z,97701.76
2022-11-16T23:54:07.408Z,97704.25
2022-11-16T23:56:38.392Z,97699.27
2022-11-16T23:59:09.331Z,97700.93
